Time;durP1;ratioP1;P1;durP2;ratioP2;P2;SDS_P1;SDS_P2;PMS_P1;PMS_P2;Temp;Humidity;BMP_temperature;BMP_pressure;BME280_temperature;BME280_humidity;BME280_pressure;Samples;Min_cycle;Max_cycle;Signal;HPM_P1;HPM_P2
2021/12/07 00:01:30;;;;;;;3.58;2.10;;;14.70;46.80;;;;;;5078527;28;20056;-40
2021/12/07 00:03:57;;;;;;;2.92;1.90;;;14.80;46.90;;;;;;5061376;28;20027;-38
2021/12/07 00:06:23;;;;;;;4.45;1.90;;;14.80;46.90;;;;;;5080051;28;20021;-42
2021/12/07 00:08:54;;;;;;;2.90;2.03;;;14.70;46.90;;;;;;5080162;28;20024;-39
2021/12/07 00:11:20;;;;;;;3.50;1.80;;;14.70;46.90;;;;;;5062441;28;20021;-38
2021/12/07 00:13:47;;;;;;;2.78;1.85;;;14.70;47.00;;;;;;5079189;28;20013;-38
2021/12/07 00:16:13;;;;;;;2.67;1.70;;;14.70;47.10;;;;;;5078375;28;20009;-38
2021/12/07 00:18:39;;;;;;;3.08;2.10;;;14.70;47.00;;;;;;5078822;28;20097;-38
2021/12/07 00:21:05;;;;;;;2.78;1.85;;;14.70;47.10;;;;;;5060876;28;20020;-42
2021/12/07 00:23:32;;;;;;;2.97;1.73;;;14.70;47.10;;;;;;5078696;28;20056;-38
2021/12/07 00:25:59;;;;;;;2.22;1.80;;;14.70;47.10;;;;;;5079178;28;20096;-39
2021/12/07 00:28:25;;;;;;;2.83;1.88;;;14.70;47.10;;;;;;5080002;28;20024;-39
2021/12/07 00:30:52;;;;;;;2.20;1.80;;;14.70;47.20;;;;;;5080139;28;20112;-40
2021/12/07 00:33:36;;;;;;;2.40;1.80;;;14.70;47.20;;;;;;5080028;28;20067;-40
2021/12/07 00:36:02;;;;;;;3.25;1.80;;;14.70;47.20;;;;;;5080126;28;20091;-38
2021/12/07 00:38:27;;;;;;;2.42;1.50;;;14.70;47.30;;;;;;5063138;28;20035;-38
2021/12/07 00:40:55;;;;;;;2.42;1.60;;;14.60;47.20;;;;;;5080901;28;20023;-44
2021/12/07 00:43:20;;;;;;;3.50;1.70;;;14.60;47.30;;;;;;5063369;28;20017;-42
2021/12/07 00:45:47;;;;;;;2.50;1.70;;;14.60;47.40;;;;;;5080817;28;20027;-40
2021/12/07 00:48:14;;;;;;;2.78;1.95;;;14.60;47.30;;;;;;5081035;28;20390;-38
2021/12/07 00:50:42;;;;;;;3.47;1.80;;;14.60;47.40;;;;;;5080833;28;20021;-39
2021/12/07 00:53:09;;;;;;;3.10;1.67;;;14.60;47.50;;;;;;5081392;28;20027;-39
2021/12/07 00:55:45;;;;;;;3.88;1.92;;;14.60;47.50;;;;;;5081612;28;20025;-40
2021/12/07 00:58:20;;;;;;;2.90;1.83;;;14.60;47.60;;;;;;5081886;28;20024;-41
2021/12/07 01:00:48;;;;;;;2.83;1.90;;;14.60;47.60;;;;;;5065699;28;20051;-40
2021/12/07 01:03:14;;;;;;;4.35;2.20;;;14.60;47.60;;;;;;5081614;28;20024;-38
2021/12/07 01:05:46;;;;;;;4.25;1.80;;;14.60;47.60;;;;;;5063497;28;20029;-40
2021/12/07 01:24:43;;;;;;;4.07;1.95;;;14.50;47.70;;;;;;5080238;28;20039;-40
2021/12/07 01:27:18;;;;;;;5.18;2.20;;;14.50;47.70;;;;;;5080482;28;20036;-40
2021/12/07 01:29:47;;;;;;;3.22;1.83;;;14.50;47.80;;;;;;5079891;28;20013;-40
2021/12/07 01:47:43;;;;;;;4.85;2.00;;;14.50;47.90;;;;;;5098166;28;20052;-39
2021/12/07 02:01:00;;;;;;;3.53;1.70;;;14.50;48.00;;;;;;5064703;28;20020;-38
2021/12/07 02:03:27;;;;;;;3.38;1.80;;;14.40;48.10;;;;;;5096238;28;20019;-37
2021/12/07 02:05:53;;;;;;;3.97;1.80;;;14.50;48.00;;;;;;5078398;28;20009;-38
2021/12/07 02:08:19;;;;;;;3.22;1.77;;;14.50;48.50;;;;;;5096467;28;20036;-37
2021/12/07 02:10:46;;;;;;;3.63;1.73;;;14.50;48.00;;;;;;5078067;28;20474;-38
2021/12/07 02:14:04;;;;;;;4.50;2.00;;;14.50;48.60;;;;;;5095372;28;20063;-37
2021/12/07 02:16:08;;;;;;;4.88;1.83;;;14.50;48.10;;;;;;5096484;28;20107;-37
2021/12/07 02:18:34;;;;;;;3.28;1.48;;;14.50;48.10;;;;;;5096723;28;20020;-37
2021/12/07 02:21:14;;;;;;;3.00;1.63;;;14.50;48.00;;;;;;5096777;28;20024;-38
2021/12/07 02:23:40;;;;;;;2.67;1.40;;;14.50;48.10;;;;;;5078002;28;20024;-38
2021/12/07 02:26:07;;;;;;;3.53;1.75;;;14.50;48.10;;;;;;5077873;28;20016;-38
2021/12/07 02:28:38;;;;;;;4.80;1.80;;;14.50;48.10;;;;;;5077846;28;20059;-38
2021/12/07 02:31:04;;;;;;;4.20;1.77;;;14.50;48.10;;;;;;5096033;28;20019;-38
2021/12/07 02:33:31;;;;;;;3.90;1.90;;;14.50;48.10;;;;;;5060603;28;20048;-40
2021/12/07 02:35:56;;;;;;;3.22;1.60;;;14.50;48.30;;;;;;5078170;28;20058;-38
2021/12/07 02:38:22;;;;;;;3.47;1.65;;;14.50;48.20;;;;;;5095364;28;20020;-37
2021/12/07 02:40:49;;;;;;;3.85;1.70;;;14.50;48.10;;;;;;5077451;28;20021;-38
2021/12/07 02:43:16;;;;;;;4.43;1.83;;;14.50;48.20;;;;;;5096365;28;20019;-39
2021/12/07 02:45:42;;;;;;;3.78;1.60;;;14.50;48.20;;;;;;5096688;28;20016;-40
2021/12/07 02:48:09;;;;;;;3.58;1.77;;;14.40;48.20;;;;;;5096756;28;20040;-40
2021/12/07 02:50:35;;;;;;;3.92;1.75;;;14.50;48.30;;;;;;5097193;28;20024;-43
2021/12/07 02:53:01;;;;;;;2.88;1.52;;;14.50;48.20;;;;;;5096382;28;20402;-38
2021/12/07 02:55:27;;;;;;;3.85;1.75;;;14.40;48.20;;;;;;5097491;28;20020;-40
2021/12/07 02:57:52;;;;;;;3.25;1.63;;;14.40;48.30;;;;;;5097704;28;20012;-38
2021/12/07 03:00:23;;;;;;;3.50;1.63;;;14.40;48.30;;;;;;5097616;28;20021;-38
2021/12/07 03:02:58;;;;;;;3.90;1.70;;;14.40;48.30;;;;;;5096234;28;20024;-37
2021/12/07 03:27:17;;;;;;;5.05;1.80;;;14.40;48.40;;;;;;5100529;28;20063;-38
2021/12/07 03:29:43;;;;;;;3.63;1.50;;;14.40;48.40;;;;;;5100897;28;20028;-38
2021/12/07 03:32:10;;;;;;;3.03;1.23;;;14.50;48.30;;;;;;5100729;28;20093;-38
2021/12/07 03:34:37;;;;;;;5.70;2.05;;;14.50;48.20;;;;;;5100754;28;20031;-39
2021/12/07 03:37:03;;;;;;;4.28;1.50;;;14.50;48.00;;;;;;5101747;28;20016;-38
2021/12/07 03:39:29;;;;;;;3.15;1.40;;;14.60;47.80;;;;;;5102787;28;20024;-40
2021/12/07 03:41:57;;;;;;;3.55;1.70;;;14.70;47.70;;;;;;5067748;28;20020;-38
2021/12/07 03:44:24;;;;;;;3.53;1.75;;;14.70;47.50;;;;;;5102270;28;20028;-38
2021/12/07 03:46:50;;;;;;;3.55;1.50;;;14.90;47.20;;;;;;5101835;28;20009;-38
2021/12/07 03:49:16;;;;;;;4.18;1.92;;;15.00;46.80;;;;;;5101441;28;20050;-38
2021/12/07 03:51:43;;;;;;;2.45;1.55;;;15.10;46.40;;;;;;5100494;28;20048;-38
2021/12/07 03:54:09;;;;;;;4.32;1.55;;;15.20;46.20;;;;;;5100329;28;20047;-38
2021/12/07 03:56:35;;;;;;;4.95;1.67;;;15.20;46.10;;;;;;5100790;28;20021;-38
2021/12/07 03:59:02;;;;;;;4.15;1.73;;;15.30;46.00;;;;;;5100578;28;20048;-40
2021/12/07 04:01:27;;;;;;;3.22;1.45;;;15.40;45.80;;;;;;5101046;28;20017;-38
2021/12/07 04:03:53;;;;;;;2.97;1.45;;;15.40;45.70;;;;;;5100806;28;20541;-42
2021/12/07 04:06:20;;;;;;;3.08;1.50;;;15.40;45.60;;;;;;5100207;28;20474;-38
2021/12/07 04:08:46;;;;;;;3.47;1.70;;;15.50;45.50;;;;;;5100889;28;20024;-39
2021/12/07 04:11:12;;;;;;;4.72;1.42;;;15.50;45.30;;;;;;5081402;28;20020;-38
2021/12/07 04:13:38;;;;;;;4.32;1.63;;;15.60;45.10;;;;;;5099201;28;20074;-39
2021/12/07 04:16:05;;;;;;;4.03;1.58;;;15.70;45.00;;;;;;5081785;28;20023;-38
2021/12/07 04:18:31;;;;;;;4.38;1.40;;;15.70;44.80;;;;;;5099871;28;20017;-38
2021/12/07 04:21:00;;;;;;;4.95;1.75;;;15.80;44.70;;;;;;5081081;28;20493;-38
2021/12/07 04:23:27;;;;;;;3.20;1.27;;;15.90;44.50;;;;;;5098964;28;20024;-38
2021/12/07 04:25:54;;;;;;;3.75;1.33;;;15.90;44.30;;;;;;5098444;28;20012;-39
2021/12/07 04:28:20;;;;;;;3.22;1.30;;;16.00;44.20;;;;;;5098899;28;20385;-38
2021/12/07 04:30:46;;;;;;;3.55;1.58;;;16.10;44.10;;;;;;5097937;28;20058;-38
2021/12/07 04:33:12;;;;;;;4.55;1.45;;;16.10;43.90;;;;;;5098131;28;20048;-38
2021/12/07 04:35:40;;;;;;;3.60;1.42;;;16.10;43.70;;;;;;5097816;28;20012;-38
2021/12/07 04:38:06;;;;;;;3.85;1.27;;;16.20;43.60;;;;;;5097856;28;20015;-39
2021/12/07 04:40:33;;;;;;;4.20;1.60;;;16.30;43.40;;;;;;5079865;28;20016;-38
2021/12/07 04:42:59;;;;;;;4.47;1.40;;;16.30;43.30;;;;;;5096875;28;20031;-38
2021/12/07 04:58:50;;;;;;;2.70;1.20;;;16.40;43.20;;;;;;5096427;28;20027;-38
2021/12/07 05:01:16;;;;;;;3.13;1.25;;;16.40;43.20;;;;;;5078351;28;20494;-38
2021/12/07 05:03:43;;;;;;;3.25;1.38;;;16.40;43.00;;;;;;5096134;28;20047;-37
2021/12/07 05:06:11;;;;;;;5.13;1.70;;;16.50;43.00;;;;;;5078238;28;20016;-38
2021/12/07 05:08:53;;;;;;;3.05;1.20;;;16.50;42.90;;;;;;5078322;28;20024;-43
2021/12/07 05:14:20;;;;;;;3.13;1.40;;;16.60;42.80;;;;;;5056873;28;20043;-38
2021/12/07 05:23:54;;;;;;;2.65;1.20;;;16.70;42.50;;;;;;5095620;28;20020;-43
2021/12/07 05:25:08;;;;;;;3.90;1.40;;;16.70;42.30;;;;;;5080038;28;20093;-39
2021/12/07 05:38:30;;;;;;;3.50;1.40;;;17.00;41.80;;;;;;5081022;28;20032;-38
2021/12/07 05:40:56;;;;;;;3.90;1.20;;;17.00;41.70;;;;;;5078292;28;20016;-38
2021/12/07 05:43:21;;;;;;;4.68;1.50;;;17.00;41.60;;;;;;5077198;28;20070;-38
2021/12/07 05:45:49;;;;;;;2.40;1.10;;;17.10;41.50;;;;;;5096332;28;20423;-39
2021/12/07 05:48:15;;;;;;;4.13;1.85;;;17.10;41.40;;;;;;5061994;28;20020;-38
2021/12/07 05:50:42;;;;;;;3.30;1.38;;;17.10;41.40;;;;;;5077824;28;20020;-39
2021/12/07 05:53:08;;;;;;;3.53;1.35;;;17.10;41.30;;;;;;5095610;28;20072;-38
2021/12/07 05:55:34;;;;;;;3.67;1.40;;;17.20;41.20;;;;;;5095464;28;20459;-38
2021/12/07 05:58:01;;;;;;;3.38;1.40;;;17.20;41.10;;;;;;5095331;28;20008;-38
2021/12/07 06:00:29;;;;;;;2.53;1.02;;;17.30;41.10;;;;;;5095515;28;20091;-38
2021/12/07 06:03:13;;;;;;;3.53;1.40;;;17.30;41.10;;;;;;5094865;28;20031;-39
2021/12/07 06:05:40;;;;;;;3.53;1.20;;;17.30;41.00;;;;;;5094761;28;20023;-38
2021/12/07 06:08:07;;;;;;;3.92;1.10;;;17.30;40.90;;;;;;5098556;28;20023;-41
2021/12/07 06:10:33;;;;;;;3.17;1.20;;;17.30;40.80;;;;;;5098589;28;20019;-38
2021/12/07 06:12:59;;;;;;;2.92;1.33;;;17.30;40.80;;;;;;5095852;28;20020;-38
2021/12/07 06:15:27;;;;;;;3.35;1.40;;;17.40;40.70;;;;;;5095561;28;20631;-38
2021/12/07 06:17:53;;;;;;;4.28;1.40;;;17.40;40.60;;;;;;5078430;28;20019;-37
2021/12/07 06:20:19;;;;;;;3.85;1.45;;;17.40;40.50;;;;;;5096349;28;20013;-41
2021/12/07 06:22:46;;;;;;;3.75;1.23;;;17.50;40.50;;;;;;5096343;28;20012;-38
2021/12/07 06:25:12;;;;;;;3.92;1.27;;;17.50;40.30;;;;;;5097130;28;20020;-38
2021/12/07 06:27:38;;;;;;;3.15;1.10;;;17.50;40.20;;;;;;5097474;28;20112;-40
2021/12/07 06:30:05;;;;;;;4.15;1.35;;;17.60;40.20;;;;;;5097218;28;20103;-38
2021/12/07 06:32:31;;;;;;;3.55;1.40;;;17.60;40.10;;;;;;5097415;28;20101;-39
2021/12/07 06:34:57;;;;;;;3.25;1.40;;;17.60;40.10;;;;;;5079386;28;20013;-38
2021/12/07 06:37:23;;;;;;;3.13;1.30;;;17.60;40.00;;;;;;5079585;28;20012;-39
2021/12/07 06:39:50;;;;;;;3.15;1.23;;;17.70;39.90;;;;;;5097120;28;20030;-41
2021/12/07 06:42:18;;;;;;;3.53;1.20;;;17.70;39.90;;;;;;5096632;28;20096;-38
2021/12/07 06:44:44;;;;;;;4.43;1.30;;;17.70;39.80;;;;;;5078473;28;20059;-45
2021/12/07 06:47:10;;;;;;;2.42;1.20;;;17.80;39.80;;;;;;5095442;28;20052;-38
2021/12/07 06:49:37;;;;;;;2.55;0.90;;;17.80;39.80;;;;;;5076908;28;20099;-39
2021/12/07 06:52:03;;;;;;;2.05;0.95;;;17.70;39.70;;;;;;5094756;28;20027;-39
2021/12/07 06:54:29;;;;;;;3.33;1.30;;;17.80;39.70;;;;;;5076782;28;20008;-39
2021/12/07 06:56:55;;;;;;;3.58;1.40;;;17.80;39.50;;;;;;5095006;28;20466;-38
2021/12/07 06:59:21;;;;;;;2.63;1.30;;;17.80;39.50;;;;;;5094781;28;20061;-39
2021/12/07 07:01:47;;;;;;;2.63;1.20;;;17.90;39.50;;;;;;5094474;28;20463;-38
2021/12/07 07:04:14;;;;;;;3.88;1.30;;;17.90;39.40;;;;;;5093933;28;20041;-38
2021/12/07 07:06:41;;;;;;;2.92;1.15;;;17.90;39.30;;;;;;5076338;28;20413;-38
2021/12/07 07:09:08;;;;;;;2.97;1.30;;;17.90;39.20;;;;;;5093664;28;20038;-42
2021/12/07 07:11:34;;;;;;;3.83;1.48;;;18.00;39.20;;;;;;5075301;28;20050;-38
2021/12/07 07:14:01;;;;;;;7.97;1.65;;;18.00;39.20;;;;;;5095030;28;20458;-38
2021/12/07 07:16:27;;;;;;;19.65;2.45;;;18.00;39.30;;;;;;5094749;28;20004;-38
2021/12/07 07:18:55;;;;;;;17.73;2.50;;;17.90;39.10;;;;;;5095135;28;20012;-38
2021/12/07 07:21:22;;;;;;;10.40;1.70;;;18.00;39.10;;;;;;5074552;28;20084;-37
2021/12/07 07:23:49;;;;;;;10.82;1.73;;;17.90;39.00;;;;;;5073739;28;20126;-39
2021/12/07 07:26:14;;;;;;;13.55;1.85;;;18.00;39.00;;;;;;5075104;28;20100;-37
2021/12/07 07:28:40;;;;;;;9.15;1.77;;;18.00;39.20;;;;;;5042555;28;20107;-37
2021/12/07 07:31:07;;;;;;;15.38;1.70;;;18.10;40.30;;;;;;5094436;28;20081;-45
2021/12/07 07:33:33;;;;;;;9.88;1.70;;;18.10;40.50;;;;;;5093800;28;20040;-38
2021/12/07 07:35:58;;;;;;;10.00;1.98;;;18.20;40.80;;;;;;5094290;28;20043;-37
2021/12/07 07:38:24;;;;;;;9.25;1.85;;;18.30;41.20;;;;;;5059730;28;20132;-37
2021/12/07 07:40:53;;;;;;;15.85;2.00;;;18.30;41.20;;;;;;5094572;28;20501;-37
2021/12/07 07:43:21;;;;;;;10.88;2.08;;;18.40;41.20;;;;;;5077054;28;20017;-40
2021/12/07 07:45:49;;;;;;;9.00;1.70;;;18.40;41.40;;;;;;5094059;28;20019;-37
2021/12/07 07:48:16;;;;;;;10.15;1.92;;;18.50;41.60;;;;;;5059451;28;20076;-40
2021/12/07 07:50:42;;;;;;;9.85;1.60;;;18.50;41.80;;;;;;5076054;28;20026;-37
2021/12/07 07:53:08;;;;;;;10.30;2.10;;;18.50;41.70;;;;;;5075777;28;20028;-37
2021/12/07 07:55:38;;;;;;;9.73;2.03;;;18.60;42.00;;;;;;5094020;28;20012;-37
2021/12/07 07:58:03;;;;;;;9.77;2.00;;;18.60;41.70;;;;;;5075817;28;20128;-40
2021/12/07 08:00:30;;;;;;;10.88;2.20;;;18.60;41.60;;;;;;5075565;28;20693;-39
2021/12/07 08:02:58;;;;;;;13.32;2.25;;;18.70;41.60;;;;;;5075097;28;20028;-39
2021/12/07 08:05:25;;;;;;;15.90;2.25;;;18.70;41.50;;;;;;5059356;28;20008;-39
2021/12/07 08:07:51;;;;;;;10.32;2.78;;;18.80;41.50;;;;;;5096550;28;20016;-38
2021/12/07 08:10:20;;;;;;;10.23;2.45;;;18.80;41.50;;;;;;5097750;28;20020;-39
2021/12/07 08:12:47;;;;;;;14.50;2.53;;;18.80;41.60;;;;;;5096013;28;20501;-39
2021/12/07 08:15:13;;;;;;;16.13;3.05;;;18.90;41.40;;;;;;5077131;28;20052;-38
2021/12/07 08:17:39;;;;;;;11.90;2.30;;;18.90;41.00;;;;;;5095468;28;20016;-38
2021/12/07 08:20:08;;;;;;;13.75;2.45;;;18.90;40.80;;;;;;5095345;28;20020;-38
2021/12/07 08:22:34;;;;;;;12.40;2.50;;;19.00;40.80;;;;;;5095216;28;20031;-37
2021/12/07 08:25:00;;;;;;;14.30;2.88;;;19.10;41.50;;;;;;5076633;28;20028;-38
2021/12/07 08:27:28;;;;;;;13.10;3.20;;;19.20;41.60;;;;;;5095142;28;20174;-39
2021/12/07 08:29:55;;;;;;;23.13;3.10;;;19.30;41.80;;;;;;5095497;28;20023;-38
2021/12/07 08:32:20;;;;;;;18.30;3.22;;;19.50;41.90;;;;;;5076951;28;20044;-38
2021/12/07 08:34:47;;;;;;;20.00;2.83;;;19.70;41.50;;;;;;5094892;28;20039;-37
2021/12/07 08:37:15;;;;;;;22.60;3.08;;;19.90;41.30;;;;;;5076795;28;20069;-37
2021/12/07 08:39:43;;;;;;;19.15;3.00;;;20.10;41.20;;;;;;5095342;28;20039;-36
2021/12/07 08:42:09;;;;;;;15.50;2.75;;;20.20;40.90;;;;;;5076874;28;20028;-38
2021/12/07 08:44:35;;;;;;;11.32;2.60;;;20.30;40.80;;;;;;5094564;28;20026;-37
2021/12/07 08:47:01;;;;;;;14.00;2.75;;;20.40;40.80;;;;;;5094609;28;20091;-37
2021/12/07 08:49:27;;;;;;;10.73;2.40;;;20.60;40.50;;;;;;5095843;28;20023;-39
2021/12/07 08:51:52;;;;;;;13.55;2.55;;;20.80;40.40;;;;;;5095161;28;20062;-43
2021/12/07 08:59:36;;;;;;;15.50;2.72;;;20.80;40.20;;;;;;5076615;28;20297;-36
2021/12/07 09:00:00;;;;;;;14.75;2.78;;;21.00;39.90;;;;;;5080229;28;20030;-37
2021/12/07 09:02:26;;;;;;;12.77;2.60;;;21.20;39.70;;;;;;5095052;28;20028;-36
2021/12/07 09:04:53;;;;;;;12.05;2.58;;;21.30;39.80;;;;;;5095261;28;20036;-40
2021/12/07 09:07:19;;;;;;;12.52;3.53;;;21.30;39.80;;;;;;5076906;28;20087;-37
2021/12/07 09:09:45;;;;;;;17.23;2.85;;;21.40;39.10;;;;;;5094918;28;20092;-38
2021/12/07 09:12:12;;;;;;;11.50;3.00;;;21.30;38.40;;;;;;5075860;28;20024;-38
2021/12/07 09:14:38;;;;;;;15.65;3.63;;;21.30;38.30;;;;;;5076499;28;20137;-39
2021/12/07 09:17:07;;;;;;;11.55;2.97;;;21.40;38.30;;;;;;5076323;28;20016;-38
2021/12/07 09:19:33;;;;;;;16.48;2.95;;;21.40;38.00;;;;;;5076310;28;20016;-37
2021/12/07 09:22:01;;;;;;;14.32;3.03;;;21.40;38.00;;;;;;5095282;28;20023;-36
2021/12/07 09:24:32;;;;;;;10.27;2.78;;;21.50;37.80;;;;;;5095758;28;20027;-40
2021/12/07 09:27:02;;;;;;;11.95;2.95;;;21.50;37.70;;;;;;5077175;28;20031;-36
2021/12/07 09:29:29;;;;;;;13.25;2.80;;;21.50;37.50;;;;;;5095282;28;20012;-37
2021/12/07 09:31:58;;;;;;;13.27;2.60;;;21.50;37.30;;;;;;5094443;28;20059;-37
2021/12/07 09:34:23;;;;;;;11.90;2.60;;;21.60;37.20;;;;;;5076732;28;20020;-38
2021/12/07 09:36:49;;;;;;;9.95;2.45;;;21.70;37.10;;;;;;5076530;28;20019;-36
2021/12/07 09:39:16;;;;;;;11.60;2.92;;;21.70;37.00;;;;;;5094731;28;20012;-38
2021/12/07 09:41:43;;;;;;;8.93;3.15;;;21.70;36.90;;;;;;5095250;28;20016;-37
2021/12/07 09:44:09;;;;;;;10.38;2.97;;;21.70;36.80;;;;;;5096159;28;20428;-36
2021/12/07 09:46:35;;;;;;;12.32;3.40;;;21.70;36.70;;;;;;5094724;28;20488;-36
2021/12/07 09:49:01;;;;;;;14.68;3.08;;;21.60;36.70;;;;;;5094441;28;20028;-36
2021/12/07 09:51:27;;;;;;;14.90;2.80;;;21.60;37.20;;;;;;5095065;28;20040;-36
2021/12/07 09:53:53;;;;;;;11.77;2.97;;;21.60;36.60;;;;;;5095066;28;20020;-36
2021/12/07 09:56:19;;;;;;;13.77;3.05;;;21.70;36.50;;;;;;5076766;28;20024;-36
2021/12/07 09:58:48;;;;;;;8.45;2.85;;;21.70;36.40;;;;;;5076493;28;20159;-36
2021/12/07 10:01:15;;;;;;;9.45;2.35;;;21.80;36.30;;;;;;5095424;28;20012;-37
2021/12/07 10:03:41;;;;;;;10.75;2.70;;;21.80;36.20;;;;;;5095207;28;20035;-36
2021/12/07 10:06:07;;;;;;;12.45;3.22;;;21.70;36.10;;;;;;5059747;28;20462;-37
2021/12/07 10:08:33;;;;;;;10.20;2.90;;;21.80;36.10;;;;;;5075469;28;20103;-36
2021/12/07 10:11:01;;;;;;;12.75;2.90;;;21.70;36.50;;;;;;5093800;28;20419;-36
2021/12/07 10:13:29;;;;;;;10.82;2.85;;;21.60;35.80;;;;;;5093844;28;20107;-35
2021/12/07 10:16:00;;;;;;;13.93;3.10;;;21.40;35.60;;;;;;5094253;28;20047;-36
2021/12/07 10:18:28;;;;;;;13.82;2.70;;;21.40;36.30;;;;;;5094779;28;20017;-36
2021/12/07 10:21:03;;;;;;;15.85;3.08;;;21.30;36.60;;;;;;5095022;28;20004;-37
2021/12/07 10:23:31;;;;;;;11.13;3.05;;;21.30;36.80;;;;;;5059769;28;20032;-37
2021/12/07 10:26:05;;;;;;;14.00;3.22;;;21.30;37.00;;;;;;5094123;28;20023;-36
2021/12/07 10:28:36;;;;;;;13.05;3.38;;;21.40;37.10;;;;;;5094109;28;20024;-36
2021/12/07 10:31:13;;;;;;;13.00;3.42;;;21.40;37.20;;;;;;5094012;28;20024;-37
2021/12/07 10:33:54;;;;;;;11.52;2.60;;;21.40;37.40;;;;;;5077936;28;20059;-37
2021/12/07 10:36:25;;;;;;;12.57;2.33;;;21.40;37.60;;;;;;5095364;28;20016;-37
2021/12/07 10:38:56;;;;;;;10.73;2.67;;;21.30;37.80;;;;;;5059899;28;20024;-37
2021/12/07 10:41:26;;;;;;;11.65;2.58;;;21.30;38.10;;;;;;5094450;28;20035;-37
2021/12/07 10:44:00;;;;;;;14.05;2.70;;;21.30;38.20;;;;;;5095626;28;20028;-36
2021/12/07 10:46:44;;;;;;;11.82;2.60;;;21.30;38.20;;;;;;5077726;28;20027;-37
2021/12/07 10:49:28;;;;;;;14.95;3.03;;;21.30;38.30;;;;;;5094752;28;20053;-36
2021/12/07 10:52:13;;;;;;;11.50;2.42;;;21.30;38.30;;;;;;5095288;28;20016;-37
2021/12/07 10:55:09;;;;;;;17.63;2.53;;;21.30;38.40;;;;;;5094393;28;20222;-36
2021/12/07 10:57:51;;;;;;;13.93;2.40;;;21.30;38.50;;;;;;5075823;28;20552;-36
2021/12/07 11:00:36;;;;;;;14.48;2.45;;;21.20;37.30;;;;;;5095290;28;20016;-39
2021/12/07 11:03:06;;;;;;;8.20;2.00;;;21.00;37.10;;;;;;5098060;28;20766;-36
2021/12/07 11:05:36;;;;;;;16.45;2.40;;;20.90;37.20;;;;;;5098200;28;20107;-37
2021/12/07 11:08:03;;;;;;;13.85;3.20;;;20.80;37.20;;;;;;5095894;28;20020;-40
2021/12/07 11:10:31;;;;;;;14.15;3.17;;;20.80;37.20;;;;;;5078226;28;20054;-37
2021/12/07 11:13:24;;;;;;;16.13;2.72;;;20.80;37.20;;;;;;5095567;28;20027;-36
2021/12/07 11:15:57;;;;;;;12.30;2.40;;;20.70;37.30;;;;;;5094931;28;20048;-36
2021/12/07 11:18:26;;;;;;;10.98;2.65;;;20.40;36.70;;;;;;5094715;28;20073;-36
2021/12/07 11:20:53;;;;;;;12.80;2.80;;;19.90;36.70;;;;;;5076154;28;20061;-36
2021/12/07 11:23:44;;;;;;;9.20;2.20;;;19.40;36.80;;;;;;5058612;28;20016;-36
2021/12/07 11:31:52;;;;;;;10.82;2.80;;;19.20;36.50;;;;;;5094120;28;20048;-36
2021/12/07 11:34:23;;;;;;;7.18;2.72;;;19.50;36.30;;;;;;5093926;28;20032;-40
2021/12/07 11:37:15;;;;;;;7.60;2.50;;;19.70;36.00;;;;;;5092836;28;20020;-36
2021/12/07 11:39:47;;;;;;;16.92;2.60;;;19.90;35.70;;;;;;5089023;28;20093;-36
2021/12/07 11:42:14;;;;;;;9.52;2.28;;;20.00;35.50;;;;;;5079069;28;20016;-41
2021/12/07 11:45:03;;;;;;;8.13;2.30;;;20.20;35.30;;;;;;5097047;28;20016;-38
2021/12/07 11:47:50;;;;;;;14.10;3.55;;;20.20;35.20;;;;;;5094743;28;20031;-36
2021/12/07 11:50:25;;;;;;;16.90;3.00;;;20.10;35.40;;;;;;5094776;28;20027;-36
2021/12/07 11:52:53;;;;;;;10.10;2.42;;;19.40;36.50;;;;;;5095813;28;20027;-36
2021/12/07 11:55:19;;;;;;;6.43;2.50;;;18.60;37.30;;;;;;5078150;28;20008;-36
2021/12/07 11:57:46;;;;;;;9.07;2.40;;;18.30;38.00;;;;;;5077936;28;20535;-35
2021/12/07 12:00:15;;;;;;;7.72;2.67;;;18.00;38.70;;;;;;5078171;28;20020;-38
2021/12/07 12:02:41;;;;;;;7.28;2.40;;;17.90;38.90;;;;;;5095984;28;20008;-36
2021/12/07 12:05:07;;;;;;;7.47;2.50;;;18.00;38.80;;;;;;5077309;28;20027;-38
2021/12/07 12:07:33;;;;;;;12.18;2.65;;;18.00;38.80;;;;;;5094832;28;20055;-35
2021/12/07 12:10:00;;;;;;;6.32;2.22;;;17.80;38.60;;;;;;5094404;28;20017;-37
2021/12/07 12:12:44;;;;;;;6.72;2.67;;;17.90;39.00;;;;;;5076078;28;20028;-35
2021/12/07 12:15:30;;;;;;;9.77;2.85;;;17.70;39.00;;;;;;5094725;28;20024;-36
2021/12/07 12:18:33;;;;;;;11.32;3.10;;;17.50;39.40;;;;;;5076610;28;20012;-36
2021/12/07 12:21:31;;;;;;;9.07;3.10;;;17.20;39.80;;;;;;5094606;28;20019;-36
2021/12/07 12:24:33;;;;;;;11.40;3.22;;;17.30;39.30;;;;;;5079073;28;20061;-36
2021/12/07 12:27:10;;;;;;;8.00;2.47;;;16.90;39.90;;;;;;5094420;28;20047;-36
2021/12/07 12:29:37;;;;;;;7.28;2.40;;;16.60;40.70;;;;;;5094925;28;20004;-35
2021/12/07 12:32:03;;;;;;;7.03;2.38;;;17.00;40.10;;;;;;5076263;28;20119;-36
2021/12/07 12:34:31;;;;;;;5.97;2.35;;;17.30;39.50;;;;;;5076139;28;20031;-36
2021/12/07 12:37:24;;;;;;;9.57;2.75;;;17.60;39.10;;;;;;5093975;28;20459;-36
2021/12/07 12:39:57;;;;;;;9.88;2.58;;;17.90;39.00;;;;;;5093190;28;20019;-36
2021/12/07 12:42:32;;;;;;;14.80;9.90;;;17.70;39.10;;;;;;5094006;28;20024;-36
2021/12/07 12:45:32;;;;;;;19.15;10.93;;;17.80;39.40;;;;;;5094740;28;20020;-37
2021/12/07 12:48:09;;;;;;;19.65;14.02;;;17.90;39.10;;;;;;4993178;28;20041;-37
2021/12/07 12:50:45;;;;;;;15.93;10.45;;;17.70;39.00;;;;;;4976768;28;20023;-36
2021/12/07 12:53:26;;;;;;;13.25;8.00;;;17.20;39.60;;;;;;4992571;28;20034;-36
2021/12/07 12:56:11;;;;;;;10.20;6.55;;;16.90;40.20;;;;;;4992361;28;20106;-35
2021/12/07 12:59:02;;;;;;;16.92;5.90;;;16.60;40.40;;;;;;4977073;28;20105;-37
2021/12/07 13:01:38;;;;;;;10.27;4.78;;;16.60;40.50;;;;;;4993197;28;20065;-35
2021/12/07 13:04:10;;;;;;;9.25;3.55;;;16.60;40.70;;;;;;4993175;28;20031;-35
2021/12/07 13:06:44;;;;;;;9.25;3.00;;;16.30;40.80;;;;;;4992979;28;20033;-36
2021/12/07 13:09:18;;;;;;;8.63;2.88;;;16.10;41.20;;;;;;4993018;28;20105;-36
2021/12/07 13:11:50;;;;;;;6.28;2.83;;;16.20;41.10;;;;;;4976608;28;20034;-36
2021/12/07 13:14:22;;;;;;;13.07;3.22;;;16.10;41.20;;;;;;4992612;28;20046;-35
2021/12/07 13:17:14;;;;;;;10.07;2.50;;;15.80;41.50;;;;;;4992809;28;20055;-36
2021/12/07 13:20:13;;;;;;;7.95;3.00;;;15.50;42.70;;;;;;4992456;28;20054;-36
2021/12/07 13:22:46;;;;;;;8.48;2.88;;;15.20;43.00;;;;;;4990329;28;20116;-35
2021/12/07 13:25:15;;;;;;;7.13;2.50;;;15.20;43.40;;;;;;5093928;28;20028;-36
2021/12/07 13:28:12;;;;;;;6.95;2.42;;;15.40;43.00;;;;;;5093382;28;20061;-37
2021/12/07 13:30:55;;;;;;;10.38;2.72;;;15.60;42.60;;;;;;5073600;28;20036;-35
2021/12/07 13:33:42;;;;;;;11.07;2.60;;;15.40;42.60;;;;;;5093281;28;20043;-35
2021/12/07 13:36:45;;;;;;;8.60;2.75;;;15.10;43.40;;;;;;5078645;28;20043;-35
2021/12/07 13:39:10;;;;;;;6.45;2.35;;;15.20;43.40;;;;;;5093567;28;20426;-35
2021/12/07 13:41:59;;;;;;;6.15;2.50;;;14.90;44.00;;;;;;5093833;28;20012;-35
2021/12/07 13:44:29;;;;;;;8.82;2.90;;;15.20;43.60;;;;;;5075577;28;20039;-35
2021/12/07 13:47:00;;;;;;;7.00;2.78;;;15.50;42.80;;;;;;5075938;28;20043;-35
2021/12/07 13:49:26;;;;;;;7.57;3.20;;;16.00;42.00;;;;;;5093753;28;20096;-36
2021/12/07 13:51:52;;;;;;;8.70;3.10;;;15.70;42.10;;;;;;5059133;28;20367;-35
2021/12/07 13:54:21;;;;;;;7.78;3.22;;;15.50;42.60;;;;;;5093858;28;20044;-35
2021/12/07 13:56:49;;;;;;;9.68;3.22;;;15.50;42.50;;;;;;5093650;28;20097;-35
2021/12/07 13:59:17;;;;;;;6.63;2.90;;;15.60;42.80;;;;;;5093747;28;20019;-35
2021/12/07 14:01:54;;;;;;;8.98;3.00;;;15.60;42.60;;;;;;5093811;28;20097;-36
2021/12/07 14:04:22;;;;;;;10.70;2.75;;;15.50;42.70;;;;;;5092629;28;20013;-36
2021/12/07 14:06:49;;;;;;;8.18;2.50;;;16.00;41.90;;;;;;5093534;28;20020;-36
2021/12/07 14:09:15;;;;;;;8.00;2.70;;;16.60;40.90;;;;;;5093819;28;20012;-36
2021/12/07 14:11:41;;;;;;;9.73;2.58;;;17.10;39.90;;;;;;5076015;28;20016;-36
2021/12/07 14:14:16;;;;;;;9.70;2.60;;;17.40;39.20;;;;;;5075015;28;20390;-36
2021/12/07 14:16:42;;;;;;;12.05;3.13;;;17.70;38.60;;;;;;5075643;28;20012;-35
2021/12/07 14:19:08;;;;;;;7.10;2.60;;;17.90;38.10;;;;;;5092963;28;20019;-36
2021/12/07 14:21:35;;;;;;;7.78;2.30;;;18.10;37.70;;;;;;5093125;28;20042;-36
2021/12/07 14:24:07;;;;;;;9.93;2.38;;;18.30;37.40;;;;;;5075561;28;20059;-36
2021/12/07 14:26:36;;;;;;;9.32;2.35;;;18.40;37.20;;;;;;5093228;28;20024;-36
2021/12/07 14:29:05;;;;;;;5.90;2.72;;;18.50;37.00;;;;;;5093755;28;20047;-37
2021/12/07 14:31:40;;;;;;;9.20;2.40;;;18.60;36.80;;;;;;5075359;28;20024;-36
2021/12/07 14:34:08;;;;;;;11.73;2.45;;;18.70;36.70;;;;;;5075200;28;20055;-36
2021/12/07 14:36:48;;;;;;;7.72;2.30;;;18.70;36.70;;;;;;5093469;28;20036;-36
2021/12/07 14:39:16;;;;;;;7.40;2.95;;;18.70;36.60;;;;;;5093586;28;20012;-36
2021/12/07 14:42:03;;;;;;;6.95;2.55;;;18.70;36.70;;;;;;5093488;28;20016;-36
2021/12/07 14:44:34;;;;;;;6.15;2.30;;;18.70;36.70;;;;;;5092307;28;20034;-36